createdAt,value
2023-03-02T00:01:52.973Z,100.00
2023-03-02T00:04:50.764Z,100.00
2023-03-02T00:07:34.716Z,100.00
2023-03-02T00:10:02.401Z,100.00
2023-03-02T00:12:32.661Z,100.00
2023-03-02T00:15:00.596Z,100.00
2023-03-02T00:17:28.460Z,100.00
2023-03-02T00:20:11.530Z,100.00
2023-03-02T00:22:40.623Z,100.00
2023-03-02T00:25:09.165Z,100.00
2023-03-02T00:27:36.705Z,100.00
2023-03-02T00:30:05.545Z,100.00
2023-03-02T00:32:34.293Z,100.00
2023-03-02T00:35:02.299Z,100.00
2023-03-02T00:37:30.045Z,100.00
2023-03-02T00:39:57.717Z,100.00
2023-03-02T00:42:25.265Z,100.00
2023-03-02T00:44:53.501Z,100.00
2023-03-02T00:47:21.012Z,100.00
2023-03-02T00:49:49.445Z,100.00
2023-03-02T00:52:17.590Z,100.00
2023-03-02T00:54:45.228Z,100.00
2023-03-02T00:57:13.281Z,100.00
2023-03-02T00:59:41.344Z,100.00
2023-03-02T01:02:26.355Z,100.00
2023-03-02T01:04:54.784Z,100.00
2023-03-02T01:07:24.955Z,100.00
2023-03-02T01:09:52.792Z,100.00
2023-03-02T01:12:20.645Z,100.00
2023-03-02T01:14:49.140Z,100.00
2023-03-02T01:17:16.720Z,100.00
2023-03-02T01:19:44.466Z,100.00
2023-03-02T01:22:12.113Z,100.00
2023-03-02T01:24:39.791Z,100.00
2023-03-02T01:27:10.171Z,100.00
2023-03-02T01:29:37.978Z,100.00
2023-03-02T01:32:05.778Z,100.00
2023-03-02T01:34:33.422Z,100.00
2023-03-02T01:37:00.923Z,100.00
2023-03-02T01:39:28.832Z,100.00
2023-03-02T01:41:56.344Z,100.00
2023-03-02T01:44:36.309Z,100.00
2023-03-02T01:47:13.790Z,100.00
2023-03-02T01:50:12.232Z,100.00
2023-03-02T01:52:40.932Z,100.00
2023-03-02T01:55:11.879Z,100.00
2023-03-02T01:57:43.991Z,100.00
2023-03-02T02:00:19.425Z,100.00
2023-03-02T02:02:47.956Z,100.00
2023-03-02T02:05:20.074Z,100.00
2023-03-02T02:07:49.149Z,100.00
2023-03-02T02:10:17.856Z,100.00
2023-03-02T02:12:45.425Z,100.00
2023-03-02T02:15:13.153Z,100.00
2023-03-02T02:17:41.102Z,100.00
2023-03-02T02:20:36.757Z,100.00
2023-03-02T02:23:14.428Z,100.00
2023-03-02T02:25:44.937Z,100.00
2023-03-02T02:28:18.367Z,100.00
2023-03-02T02:30:46.487Z,100.00
2023-03-02T02:33:17.465Z,100.00
2023-03-02T02:35:46.900Z,100.00
2023-03-02T02:38:17.503Z,100.00
2023-03-02T02:40:55.983Z,100.00
2023-03-02T02:43:28.906Z,100.00
2023-03-02T02:45:58.140Z,100.00
2023-03-02T02:48:31.009Z,100.00
2023-03-02T02:51:03.194Z,100.00
2023-03-02T02:53:40.813Z,100.00
2023-03-02T02:56:09.497Z,100.00
2023-03-02T02:58:43.617Z,100.00
2023-03-02T03:01:15.600Z,100.00
2023-03-02T03:03:49.802Z,100.00
2023-03-02T03:06:20.974Z,100.00
2023-03-02T03:08:53.308Z,100.00
2023-03-02T03:11:29.023Z,100.00
2023-03-02T03:14:10.288Z,100.00
2023-03-02T03:16:40.141Z,100.00
2023-03-02T03:19:26.507Z,100.00
2023-03-02T03:21:57.517Z,100.00
2023-03-02T03:24:28.370Z,100.00
2023-03-02T03:26:57.033Z,100.00
2023-03-02T03:29:27.020Z,100.00
2023-03-02T03:32:01.197Z,100.00
2023-03-02T03:34:30.004Z,100.00
2023-03-02T03:37:02.060Z,100.00
2023-03-02T03:39:34.535Z,100.00
2023-03-02T03:42:02.224Z,100.00
2023-03-02T03:44:30.336Z,100.00
2023-03-02T03:46:58.259Z,100.00
2023-03-02T03:49:26.824Z,100.00
2023-03-02T03:51:55.541Z,100.00
2023-03-02T03:54:23.523Z,100.00
2023-03-02T03:56:51.573Z,100.00
2023-03-02T03:59:22.977Z,100.00
2023-03-02T04:02:03.001Z,100.00
2023-03-02T04:04:46.230Z,100.00
2023-03-02T04:07:16.913Z,100.00
2023-03-02T04:09:45.757Z,100.00
2023-03-02T04:12:15.264Z,100.00
2023-03-02T04:14:47.842Z,100.00
2023-03-02T04:17:15.712Z,100.00
2023-03-02T04:19:45.923Z,100.00
2023-03-02T04:22:15.108Z,100.00
2023-03-02T04:24:43.395Z,100.00
2023-03-02T04:27:12.022Z,100.00
2023-03-02T04:29:40.526Z,100.00
2023-03-02T04:32:08.925Z,100.00
2023-03-02T04:34:38.825Z,100.00
2023-03-02T04:37:06.516Z,100.00
2023-03-02T04:39:34.135Z,100.00
2023-03-02T04:42:01.694Z,100.00
2023-03-02T04:44:29.253Z,100.00
2023-03-02T04:46:56.806Z,100.00
2023-03-02T04:49:24.264Z,100.00
2023-03-02T04:51:51.756Z,100.00
2023-03-02T04:54:22.186Z,100.00
2023-03-02T04:56:51.513Z,100.00
2023-03-02T04:59:22.608Z,100.00
2023-03-02T05:01:50.497Z,100.00
2023-03-02T05:04:18.816Z,100.00
2023-03-02T05:06:47.126Z,100.00
2023-03-02T05:09:14.755Z,100.00
2023-03-02T05:11:42.452Z,100.00
2023-03-02T05:14:12.359Z,100.00
2023-03-02T05:16:41.600Z,100.00
2023-03-02T05:19:10.708Z,100.00
2023-03-02T05:21:39.375Z,100.00
2023-03-02T05:24:07.238Z,100.00
2023-03-02T05:26:35.088Z,100.00
2023-03-02T05:29:03.291Z,100.00
2023-03-02T05:31:37.781Z,100.00
2023-03-02T05:34:07.708Z,100.00
2023-03-02T05:36:36.038Z,100.00
2023-03-02T05:39:05.370Z,100.00
2023-03-02T05:41:33.013Z,100.00
2023-03-02T05:44:00.696Z,100.00
2023-03-02T05:46:28.429Z,100.00
2023-03-02T05:48:56.167Z,100.00
2023-03-02T05:51:23.915Z,100.00
2023-03-02T05:53:51.509Z,100.00
2023-03-02T05:56:20.798Z,100.00
2023-03-02T05:58:48.335Z,100.00
2023-03-02T06:01:16.101Z,100.00
2023-03-02T06:03:44.212Z,100.00
2023-03-02T06:06:15.287Z,100.00
2023-03-02T06:08:44.025Z,100.00
2023-03-02T06:11:13.022Z,100.00
2023-03-02T06:13:40.783Z,100.00
2023-03-02T06:16:08.820Z,100.00
2023-03-02T06:18:39.723Z,100.00
2023-03-02T06:21:08.784Z,100.00
2023-03-02T06:23:36.397Z,100.00
2023-03-02T06:26:11.715Z,100.00
2023-03-02T06:28:51.558Z,100.00
2023-03-02T06:31:21.288Z,100.00
2023-03-02T06:33:49.366Z,100.00
2023-03-02T06:36:17.612Z,100.00
2023-03-02T06:38:45.390Z,100.00
2023-03-02T06:41:12.893Z,100.00
2023-03-02T06:43:40.379Z,100.00
2023-03-02T06:46:08.097Z,100.00
2023-03-02T06:48:35.571Z,100.00
2023-03-02T06:51:03.102Z,100.00
2023-03-02T06:53:30.851Z,100.00
2023-03-02T06:55:58.341Z,100.00
2023-03-02T06:58:25.828Z,100.00
2023-03-02T07:00:53.395Z,100.00
2023-03-02T07:03:21.156Z,100.00
2023-03-02T07:05:49.187Z,100.00
2023-03-02T07:08:16.752Z,100.00
2023-03-02T07:10:44.786Z,100.00
2023-03-02T07:13:12.568Z,100.00
2023-03-02T07:15:40.493Z,100.00
2023-03-02T07:18:08.297Z,100.00
2023-03-02T07:20:36.093Z,100.00
2023-03-02T07:23:04.739Z,100.00
2023-03-02T07:25:32.554Z,100.00
2023-03-02T07:28:00.029Z,100.00
2023-03-02T07:30:27.492Z,100.00
2023-03-02T07:32:54.956Z,100.00
2023-03-02T07:35:22.429Z,100.00
2023-03-02T07:37:51.932Z,100.00
2023-03-02T07:40:19.975Z,100.00
2023-03-02T07:42:47.488Z,100.00
2023-03-02T07:45:16.984Z,100.00
2023-03-02T07:47:44.554Z,100.00
2023-03-02T07:50:12.771Z,100.00
2023-03-02T07:52:40.337Z,100.00
2023-03-02T07:55:08.542Z,100.00
2023-03-02T07:57:36.103Z,100.00
2023-03-02T08:00:04.832Z,100.00
2023-03-02T08:02:40.706Z,100.00
2023-03-02T08:05:09.444Z,100.00
2023-03-02T08:07:37.064Z,100.00
2023-03-02T08:10:05.349Z,100.00
2023-03-02T08:12:32.859Z,100.00
2023-03-02T08:15:01.025Z,100.00
2023-03-02T08:17:30.993Z,100.00
2023-03-02T08:19:58.433Z,100.00
2023-03-02T08:22:25.888Z,100.00
2023-03-02T08:24:53.344Z,100.00
2023-03-02T08:27:20.794Z,100.00
2023-03-02T08:29:48.552Z,100.00
2023-03-02T08:32:16.063Z,99.79
2023-03-02T08:34:43.677Z,100.00
2023-03-02T08:37:11.332Z,99.66
2023-03-02T08:39:38.788Z,100.00
2023-03-02T08:42:06.257Z,98.06
2023-03-02T08:44:33.915Z,99.23
2023-03-02T08:47:01.429Z,95.31
2023-03-02T08:49:28.983Z,95.14
2023-03-02T08:51:58.791Z,100.00
2023-03-02T08:54:27.112Z,100.00
2023-03-02T08:56:54.586Z,100.00
2023-03-02T08:59:22.295Z,100.00
2023-03-02T09:01:49.964Z,100.00
2023-03-02T09:04:17.742Z,100.00
2023-03-02T09:06:45.784Z,100.00
2023-03-02T09:09:14.922Z,100.00
2023-03-02T09:11:43.544Z,100.00
2023-03-02T09:14:11.442Z,100.00
2023-03-02T09:16:39.161Z,100.00
2023-03-02T09:19:07.210Z,100.00
2023-03-02T09:21:35.180Z,100.00
2023-03-02T09:24:02.844Z,100.00
2023-03-02T09:26:30.367Z,100.00
2023-03-02T09:28:57.928Z,100.00
2023-03-02T09:31:25.542Z,100.00
2023-03-02T09:33:53.059Z,100.00
2023-03-02T09:36:22.701Z,100.00
2023-03-02T09:38:50.835Z,100.00
2023-03-02T09:41:21.562Z,100.00
2023-03-02T09:44:12.981Z,100.00
2023-03-02T09:46:56.684Z,100.00
2023-03-02T09:49:43.280Z,100.00
2023-03-02T09:52:37.266Z,100.00
2023-03-02T09:55:17.278Z,100.00
2023-03-02T09:57:46.899Z,100.00
2023-03-02T10:00:36.599Z,100.00
2023-03-02T10:03:17.180Z,100.00
2023-03-02T10:05:50.245Z,99.97
2023-03-02T10:08:25.877Z,95.83
2023-03-02T10:11:05.809Z,95.17
2023-03-02T10:13:42.416Z,96.74
2023-03-02T10:16:19.493Z,96.27
2023-03-02T10:19:08.713Z,97.63
2023-03-02T10:21:41.865Z,96.73
2023-03-02T10:24:24.666Z,94.47
2023-03-02T10:26:59.231Z,89.15
2023-03-02T10:29:39.243Z,85.61
2023-03-02T10:32:09.843Z,80.48
2023-03-02T10:34:38.169Z,78.92
2023-03-02T10:37:14.292Z,77.24
2023-03-02T10:39:42.565Z,83.62
2023-03-02T10:42:37.550Z,85.76
2023-03-02T10:45:23.353Z,85.60
2023-03-02T10:48:09.156Z,82.82
2023-03-02T10:50:39.848Z,82.41
2023-03-02T10:53:08.794Z,83.13
2023-03-02T10:55:44.826Z,84.72
2023-03-02T10:58:45.754Z,83.99
2023-03-02T11:01:19.014Z,85.04
2023-03-02T11:03:58.077Z,83.76
2023-03-02T11:06:26.349Z,81.75
2023-03-02T11:09:05.588Z,80.23
2023-03-02T11:11:34.428Z,76.83
2023-03-02T11:14:14.394Z,81.45
2023-03-02T11:16:42.142Z,79.89
2023-03-02T11:19:35.071Z,80.30
2023-03-02T11:22:17.800Z,86.46
2023-03-02T11:24:49.287Z,82.38
2023-03-02T11:27:30.068Z,78.46
2023-03-02T11:30:13.840Z,79.52
2023-03-02T11:33:07.923Z,76.69
2023-03-02T11:36:06.534Z,77.18
2023-03-02T11:38:40.897Z,74.95
2023-03-02T11:41:14.722Z,72.99
2023-03-02T11:43:42.149Z,72.30
2023-03-02T11:46:22.045Z,67.08
2023-03-02T11:48:54.817Z,63.18
2023-03-02T11:51:26.783Z,62.71
2023-03-02T11:54:00.517Z,61.78
2023-03-02T11:56:31.629Z,60.33
2023-03-02T11:59:07.276Z,62.86
2023-03-02T12:01:36.352Z,61.28
2023-03-02T12:04:28.623Z,65.90
2023-03-02T12:06:57.474Z,61.50
2023-03-02T12:09:24.993Z,56.79
2023-03-02T12:11:57.663Z,58.62
2023-03-02T12:14:43.862Z,58.83
2023-03-02T12:17:27.010Z,54.61
2023-03-02T12:20:08.222Z,53.93
2023-03-02T12:22:37.538Z,54.55
2023-03-02T12:25:25.610Z,54.30
2023-03-02T12:27:55.333Z,52.08
2023-03-02T12:30:27.348Z,51.71
2023-03-02T12:33:06.317Z,50.99
2023-03-02T12:35:39.443Z,48.65
2023-03-02T12:38:22.593Z,47.67
2023-03-02T12:41:05.426Z,46.25
2023-03-02T12:43:38.014Z,45.32
2023-03-02T12:46:34.893Z,44.31
2023-03-02T12:49:12.676Z,43.69
2023-03-02T12:51:55.896Z,42.61
2023-03-02T12:54:26.598Z,42.07
2023-03-02T12:57:15.548Z,39.13
2023-03-02T12:59:43.584Z,35.99
2023-03-02T13:02:15.855Z,34.33
2023-03-02T13:04:43.610Z,31.92
2023-03-02T13:07:19.299Z,35.02
2023-03-02T13:09:56.643Z,36.69
2023-03-02T13:12:28.305Z,36.19
2023-03-02T13:14:59.010Z,34.35
2023-03-02T13:17:32.605Z,36.57
2023-03-02T13:20:02.857Z,35.37
2023-03-02T13:22:30.797Z,35.41
2023-03-02T13:25:03.802Z,33.96
2023-03-02T13:27:31.276Z,35.34
2023-03-02T13:30:21.918Z,34.83
2023-03-02T13:32:51.000Z,34.07
2023-03-02T13:35:26.526Z,33.07
2023-03-02T13:38:05.268Z,32.16
2023-03-02T13:40:41.543Z,33.63
2023-03-02T13:43:29.930Z,34.76
2023-03-02T13:46:12.084Z,33.79
2023-03-02T13:48:39.442Z,32.57
2023-03-02T13:51:18.753Z,33.05
2023-03-02T13:53:59.224Z,32.44
2023-03-02T13:56:38.101Z,32.99
2023-03-02T13:59:08.767Z,32.97
2023-03-02T14:01:36.121Z,31.83
2023-03-02T14:04:03.292Z,32.24
2023-03-02T14:06:31.700Z,31.92
2023-03-02T14:08:59.021Z,32.77
2023-03-02T14:11:27.061Z,32.32
2023-03-02T14:13:55.096Z,31.38
2023-03-02T14:16:26.933Z,30.83
2023-03-02T14:18:56.170Z,30.23
2023-03-02T14:21:25.857Z,31.81
2023-03-02T14:23:54.117Z,31.84
2023-03-02T14:26:36.934Z,33.47
2023-03-02T14:29:15.041Z,32.00
2023-03-02T14:31:42.305Z,30.46
2023-03-02T14:34:13.840Z,28.51
2023-03-02T14:36:44.067Z,30.56
2023-03-02T14:39:24.324Z,30.75
2023-03-02T14:41:54.392Z,31.29
2023-03-02T14:44:23.231Z,31.05
2023-03-02T14:46:50.600Z,30.47
2023-03-02T14:49:17.882Z,32.13
2023-03-02T14:52:17.204Z,32.57
2023-03-02T14:54:51.687Z,30.85
2023-03-02T14:57:25.342Z,31.60
2023-03-02T14:59:54.575Z,33.24
2023-03-02T15:02:26.797Z,33.71
2023-03-02T15:04:57.785Z,32.78
2023-03-02T15:07:27.828Z,32.32
2023-03-02T15:09:58.762Z,31.58
2023-03-02T15:12:26.423Z,32.46
2023-03-02T15:14:53.743Z,32.18
2023-03-02T15:17:21.030Z,32.48
2023-03-02T15:19:48.365Z,31.24
2023-03-02T15:22:15.976Z,31.35
2023-03-02T15:24:43.091Z,32.22
2023-03-02T15:27:10.295Z,31.84
2023-03-02T15:29:37.565Z,32.59
2023-03-02T15:32:04.997Z,32.44
2023-03-02T15:34:32.143Z,32.39
2023-03-02T15:36:59.432Z,32.27
2023-03-02T15:39:26.743Z,33.25
2023-03-02T15:41:54.163Z,34.64
2023-03-02T15:44:24.058Z,33.06
2023-03-02T15:46:54.908Z,32.61
2023-03-02T15:49:28.010Z,33.12
2023-03-02T15:52:00.171Z,33.29
2023-03-02T15:54:28.943Z,33.67
2023-03-02T15:56:56.535Z,34.04
2023-03-02T15:59:30.662Z,33.33
2023-03-02T16:01:59.763Z,33.86
2023-03-02T16:04:28.513Z,33.97
2023-03-02T16:06:58.293Z,32.88
2023-03-02T16:09:28.780Z,34.86
2023-03-02T16:11:56.306Z,34.91
2023-03-02T16:14:24.155Z,34.99
2023-03-02T16:16:51.742Z,36.26
2023-03-02T16:19:20.152Z,37.17
2023-03-02T16:21:48.220Z,37.81
2023-03-02T16:24:17.794Z,38.93
2023-03-02T16:26:45.334Z,40.55
2023-03-02T16:29:14.052Z,40.60
2023-03-02T16:31:41.786Z,41.56
2023-03-02T16:34:09.955Z,42.53
2023-03-02T16:36:39.496Z,42.84
2023-03-02T16:39:09.430Z,43.71
2023-03-02T16:41:39.509Z,44.83
2023-03-02T16:44:11.707Z,45.65
2023-03-02T16:46:40.105Z,47.83
2023-03-02T16:49:07.485Z,49.82
2023-03-02T16:51:36.393Z,50.68
2023-03-02T16:54:06.317Z,51.63
2023-03-02T16:56:33.726Z,53.30
2023-03-02T16:59:01.135Z,55.02
2023-03-02T17:01:29.387Z,55.38
2023-03-02T17:03:57.070Z,59.49
2023-03-02T17:06:24.954Z,62.08
2023-03-02T17:08:52.699Z,66.12
2023-03-02T17:11:20.896Z,67.64
2023-03-02T17:13:48.161Z,78.45
2023-03-02T17:16:16.885Z,86.81
2023-03-02T17:18:47.033Z,92.09
2023-03-02T17:21:16.849Z,100.00
2023-03-02T17:23:45.573Z,100.00
2023-03-02T17:26:12.773Z,100.00
2023-03-02T17:28:40.081Z,97.08
2023-03-02T17:31:07.432Z,96.37
2023-03-02T17:33:35.355Z,94.10
2023-03-02T17:36:07.387Z,90.72
2023-03-02T17:38:35.248Z,90.39
2023-03-02T17:41:04.789Z,96.03
2023-03-02T17:43:33.921Z,96.14
2023-03-02T17:46:27.943Z,95.91
2023-03-02T17:48:57.682Z,100.00
2023-03-02T17:51:27.460Z,100.00
2023-03-02T17:53:56.195Z,100.00
2023-03-02T17:56:28.395Z,100.00
2023-03-02T17:58:58.053Z,100.00
2023-03-02T18:01:26.467Z,100.00
2023-03-02T18:03:54.320Z,100.00
2023-03-02T18:06:22.188Z,100.00
2023-03-02T18:08:51.676Z,100.00
2023-03-02T18:11:21.743Z,100.00
2023-03-02T18:13:49.640Z,99.82
2023-03-02T18:16:17.415Z,100.00
2023-03-02T18:18:45.044Z,100.00
2023-03-02T18:21:12.861Z,100.00
2023-03-02T18:23:41.997Z,100.00
2023-03-02T18:26:09.849Z,100.00
2023-03-02T18:28:38.242Z,100.00
2023-03-02T18:31:06.334Z,100.00
2023-03-02T18:33:34.780Z,100.00
2023-03-02T18:36:05.541Z,100.00
2023-03-02T18:38:34.112Z,100.00
2023-03-02T18:41:04.229Z,100.00
2023-03-02T18:43:34.896Z,100.00
2023-03-02T18:46:04.282Z,100.00
2023-03-02T18:48:32.872Z,100.00
2023-03-02T18:51:00.604Z,100.00
2023-03-02T18:53:28.174Z,100.00
2023-03-02T18:55:56.033Z,100.00
2023-03-02T18:58:25.361Z,100.00
2023-03-02T19:00:54.224Z,100.00
2023-03-02T19:03:22.412Z,100.00
2023-03-02T19:05:49.922Z,100.00
2023-03-02T19:08:17.728Z,100.00
2023-03-02T19:10:45.720Z,100.00
2023-03-02T19:13:13.637Z,100.00
2023-03-02T19:15:42.531Z,100.00
2023-03-02T19:18:16.107Z,100.00
2023-03-02T19:20:48.842Z,100.00
2023-03-02T19:23:17.597Z,100.00
2023-03-02T19:25:45.941Z,100.00
2023-03-02T19:28:14.022Z,100.00
2023-03-02T19:30:41.701Z,100.00
2023-03-02T19:33:09.950Z,100.00
2023-03-02T19:35:43.221Z,100.00
2023-03-02T19:38:11.156Z,100.00
2023-03-02T19:40:40.459Z,100.00
2023-03-02T19:43:08.158Z,100.00
2023-03-02T19:45:36.257Z,100.00
2023-03-02T19:48:05.645Z,100.00
2023-03-02T19:50:33.363Z,100.00
2023-03-02T19:53:01.047Z,100.00
2023-03-02T19:55:28.684Z,100.00
2023-03-02T19:57:59.842Z,100.00
2023-03-02T20:00:30.098Z,100.00
2023-03-02T20:02:58.241Z,100.00
2023-03-02T20:05:27.638Z,100.00
2023-03-02T20:07:55.457Z,100.00
2023-03-02T20:10:59.997Z,100.00
2023-03-02T20:13:27.651Z,100.00
2023-03-02T20:15:55.220Z,100.00
2023-03-02T20:18:22.836Z,100.00
2023-03-02T20:20:50.491Z,100.00
2023-03-02T20:23:18.172Z,100.00
2023-03-02T20:25:48.520Z,100.00
2023-03-02T20:28:19.294Z,100.00
2023-03-02T20:30:51.382Z,100.00
2023-03-02T20:33:21.136Z,100.00
2023-03-02T20:35:49.595Z,100.00
2023-03-02T20:38:34.147Z,100.00
2023-03-02T20:41:01.882Z,100.00
2023-03-02T20:43:29.983Z,100.00
2023-03-02T20:45:59.397Z,100.00
2023-03-02T20:48:27.825Z,100.00
2023-03-02T20:50:55.870Z,100.00
2023-03-02T20:53:23.953Z,100.00
2023-03-02T20:55:51.456Z,100.00
2023-03-02T20:58:21.144Z,100.00
2023-03-02T21:00:48.926Z,100.00
2023-03-02T21:03:16.625Z,100.00
2023-03-02T21:05:44.663Z,100.00
2023-03-02T21:08:14.695Z,100.00
2023-03-02T21:10:47.870Z,100.00
2023-03-02T21:13:15.822Z,100.00
2023-03-02T21:15:43.816Z,100.00
2023-03-02T21:18:11.989Z,100.00
2023-03-02T21:20:39.914Z,100.00
2023-03-02T21:23:07.790Z,100.00
2023-03-02T21:25:36.175Z,100.00
2023-03-02T21:28:04.962Z,100.00
2023-03-02T21:30:34.947Z,100.00
2023-03-02T21:33:03.816Z,100.00
2023-03-02T21:35:35.923Z,100.00
2023-03-02T21:38:04.762Z,100.00
2023-03-02T21:40:35.807Z,100.00
2023-03-02T21:43:05.486Z,100.00
2023-03-02T21:45:34.085Z,100.00
2023-03-02T21:48:03.007Z,100.00
2023-03-02T21:50:36.062Z,100.00
2023-03-02T21:53:04.385Z,100.00
2023-03-02T21:55:33.038Z,100.00
2023-03-02T21:58:01.366Z,100.00
2023-03-02T22:00:32.681Z,100.00
2023-03-02T22:03:01.087Z,100.00
2023-03-02T22:05:29.090Z,100.00
2023-03-02T22:07:56.809Z,100.00
2023-03-02T22:10:25.474Z,100.00
2023-03-02T22:13:13.383Z,100.00
2023-03-02T22:15:41.572Z,100.00
2023-03-02T22:18:20.154Z,100.00
2023-03-02T22:20:51.366Z,100.00
2023-03-02T22:23:21.835Z,100.00
2023-03-02T22:25:52.358Z,100.00
2023-03-02T22:28:26.061Z,100.00
2023-03-02T22:30:58.530Z,100.00
2023-03-02T22:33:28.154Z,100.00
2023-03-02T22:36:06.453Z,100.00
2023-03-02T22:38:34.280Z,100.00
2023-03-02T22:41:01.818Z,100.00
2023-03-02T22:43:31.634Z,100.00
2023-03-02T22:46:05.451Z,100.00
2023-03-02T22:48:37.705Z,100.00
2023-03-02T22:51:21.492Z,100.00
2023-03-02T22:53:56.198Z,100.00
2023-03-02T22:56:37.244Z,100.00
2023-03-02T22:59:28.440Z,100.00
2023-03-02T23:02:01.579Z,100.00
2023-03-02T23:04:36.050Z,100.00
2023-03-02T23:07:13.770Z,100.00
2023-03-02T23:09:41.637Z,100.00
2023-03-02T23:12:20.363Z,100.00
2023-03-02T23:14:53.086Z,100.00
2023-03-02T23:17:23.163Z,100.00
2023-03-02T23:19:51.363Z,100.00
2023-03-02T23:22:19.122Z,100.00
2023-03-02T23:24:47.142Z,100.00
2023-03-02T23:27:15.425Z,100.00
2023-03-02T23:29:43.080Z,100.00
2023-03-02T23:32:11.566Z,100.00
2023-03-02T23:34:39.168Z,100.00
2023-03-02T23:37:06.929Z,100.00
2023-03-02T23:39:34.445Z,100.00
2023-03-02T23:42:02.091Z,100.00
2023-03-02T23:44:29.778Z,100.00
2023-03-02T23:46:57.388Z,100.00
2023-03-02T23:49:25.133Z,100.00
2023-03-02T23:51:53.021Z,100.00
2023-03-02T23:54:20.877Z,100.00
2023-03-02T23:56:52.610Z,100.00
2023-03-02T23:59:20.494Z,100.00
